Time;durP1;ratioP1;P1;durP2;ratioP2;P2;SDS_P1;SDS_P2;PMS_P1;PMS_P2;Temp;Humidity;BMP_temperature;BMP_pressure;BME280_temperature;BME280_humidity;BME280_pressure;Samples;Min_cycle;Max_cycle;Signal;HPM_P1;HPM_P2
2022/08/11 00:00:14;;;;;;;0.20;0.20;;;;;;;21.50;65.75;102560.91;1986761;29;20055;-62
2022/08/11 00:01:23;;;;;;;0.20;0.20;;;;;;;21.48;65.97;102557.75;1986741;29;20574;-63
2022/08/11 00:02:38;;;;;;;0.20;0.20;;;;;;;21.43;65.98;102556.13;1991914;29;20133;-62
2022/08/11 00:03:55;;;;;;;0.30;0.30;;;;;;;21.38;66.16;102559.19;1987768;29;20143;-62
2022/08/11 00:05:04;;;;;;;0.30;0.30;;;;;;;21.36;66.59;102553.25;1992028;29;20062;-62
2022/08/11 00:06:14;;;;;;;0.30;0.30;;;;;;;21.33;66.21;102555.97;1985683;29;20113;-63
2022/08/11 00:07:17;;;;;;;0.30;0.30;;;;;;;21.30;66.53;102556.69;1984552;29;20062;-63
2022/08/11 00:08:23;;;;;;;0.30;0.30;;;;;;;21.32;66.01;102560.69;1987967;29;20059;-63
2022/08/11 00:09:35;;;;;;;0.30;0.30;;;;;;;21.30;66.53;102551.22;1987793;29;20059;-64
2022/08/11 00:10:42;;;;;;;0.30;0.30;;;;;;;21.27;66.37;102561.00;1992732;29;20065;-63
2022/08/11 00:11:47;;;;;;;0.20;0.20;;;;;;;21.25;66.57;102546.84;1989228;29;20137;-62
2022/08/11 00:12:55;;;;;;;0.30;0.30;;;;;;;21.23;66.55;102542.88;1990107;29;20090;-62
2022/08/11 00:13:59;;;;;;;0.25;0.25;;;;;;;21.20;66.17;102541.66;1989857;29;20197;-63
2022/08/11 00:15:02;;;;;;;0.30;0.30;;;;;;;21.22;66.45;102544.84;1987775;29;20059;-63
2022/08/11 00:16:15;;;;;;;0.30;0.30;;;;;;;21.18;66.74;102543.19;1986928;29;20515;-62
2022/08/11 00:17:19;;;;;;;0.20;0.20;;;;;;;21.17;66.91;102542.41;1983320;29;20109;-62
2022/08/11 00:18:22;;;;;;;0.25;0.25;;;;;;;21.17;66.84;102547.13;1991510;29;20070;-62
2022/08/11 00:19:28;;;;;;;0.30;0.30;;;;;;;21.19;66.52;102551.06;1987188;29;20062;-62
2022/08/11 00:20:57;;;;;;;0.30;0.30;;;;;;;21.15;66.55;102550.25;1990524;29;20503;-62
2022/08/11 00:22:01;;;;;;;0.30;0.30;;;;;;;21.15;66.25;102549.44;1991025;29;20066;-62
2022/08/11 00:23:11;;;;;;;0.20;0.20;;;;;;;21.14;66.52;102548.63;1989544;29;20062;-62
2022/08/11 00:24:20;;;;;;;0.28;0.28;;;;;;;21.13;66.67;102549.81;1990716;29;20070;-63
2022/08/11 00:25:25;;;;;;;0.28;0.28;;;;;;;21.14;66.37;102548.63;1988094;29;20550;-63
2022/08/11 00:26:29;;;;;;;0.30;0.30;;;;;;;21.13;66.61;102547.06;1994493;29;20531;-63
2022/08/11 00:27:33;;;;;;;0.20;0.20;;;;;;;21.13;66.35;102554.50;1993983;29;20051;-63
2022/08/11 00:28:36;;;;;;;0.30;0.30;;;;;;;21.12;66.65;102544.69;1993026;29;20114;-64
2022/08/11 00:29:39;;;;;;;0.30;0.30;;;;;;;21.12;66.35;102552.94;1990852;29;20055;-63
2022/08/11 00:30:54;;;;;;;0.30;0.30;;;;;;;21.10;66.16;102552.50;1987464;29;20065;-65
2022/08/11 00:32:00;;;;;;;0.30;0.30;;;;;;;21.05;66.60;102553.63;1994859;29;20062;-63
2022/08/11 00:33:04;;;;;;;0.30;0.30;;;;;;;21.04;66.50;102541.03;1992571;29;20502;-63
2022/08/11 00:34:12;;;;;;;0.30;0.30;;;;;;;21.03;66.45;102552.38;1981059;29;20237;-62
2022/08/11 00:35:16;;;;;;;0.30;0.30;;;;;;;21.01;66.54;102554.72;1981413;29;20055;-62
2022/08/11 00:36:45;;;;;;;0.30;0.30;;;;;;;20.95;66.61;102540.47;1991578;29;20500;-61
2022/08/11 00:37:51;;;;;;;0.30;0.30;;;;;;;20.92;66.79;102541.22;1991805;29;20127;-62
2022/08/11 00:39:05;;;;;;;0.30;0.30;;;;;;;20.92;66.85;102549.47;1992312;29;21198;-62
2022/08/11 00:40:15;;;;;;;0.30;0.30;;;;;;;20.92;66.71;102549.47;1995062;29;20152;-63
2022/08/11 00:41:34;;;;;;;0.25;0.25;;;;;;;20.88;66.60;102540.38;1992244;29;20097;-62
2022/08/11 00:42:49;;;;;;;0.20;0.20;;;;;;;20.90;66.63;102548.25;1993518;29;20137;-64
2022/08/11 00:44:29;;;;;;;0.28;0.28;;;;;;;20.86;66.80;102547.38;1987568;29;20146;-63
2022/08/11 00:45:39;;;;;;;0.30;0.30;;;;;;;20.83;66.60;102552.44;1968662;30;20631;-63
2022/08/11 00:46:57;;;;;;;0.30;0.30;;;;;;;20.83;67.06;102537.94;1987933;29;20063;-63
2022/08/11 00:48:06;;;;;;;0.30;0.30;;;;;;;20.86;66.36;102548.19;1987548;29;20112;-64
2022/08/11 00:49:24;;;;;;;0.40;0.40;;;;;;;20.85;66.30;102546.63;1991756;29;20070;-63
2022/08/11 00:50:38;;;;;;;0.30;0.30;;;;;;;20.83;66.34;102548.94;1989065;29;20065;-64
2022/08/11 00:51:59;;;;;;;0.40;0.40;;;;;;;20.80;66.33;102544.94;1994420;29;20605;-64
2022/08/11 00:53:25;;;;;;;0.30;0.30;;;;;;;20.76;66.72;102546.88;1990265;29;20452;-63
2022/08/11 00:54:49;;;;;;;0.30;0.30;;;;;;;20.78;66.75;102554.72;1987535;29;20062;-63
2022/08/11 00:56:17;;;;;;;0.30;0.30;;;;;;;20.72;66.86;102551.50;1992802;29;20526;-64
2022/08/11 00:57:52;;;;;;;0.40;0.40;;;;;;;20.73;67.03;102555.03;1987702;29;20050;-63
2022/08/11 00:59:26;;;;;;;0.38;0.38;;;;;;;20.68;66.99;102550.66;1969559;30;20055;-62
2022/08/11 01:00:59;;;;;;;0.40;0.40;;;;;;;20.67;67.22;102545.53;1996148;29;20053;-62
2022/08/11 01:02:15;;;;;;;0.40;0.40;;;;;;;20.68;66.74;102547.09;1988453;29;20059;-63
2022/08/11 01:03:42;;;;;;;0.32;0.32;;;;;;;20.66;66.90;102549.44;1991349;29;20511;-62
2022/08/11 01:05:28;;;;;;;0.30;0.30;;;;;;;20.59;67.05;102549.31;1989811;29;20121;-62
2022/08/11 01:06:57;;;;;;;0.30;0.30;;;;;;;20.60;67.18;102550.88;1990572;29;20061;-62
2022/08/11 01:08:40;;;;;;;0.40;0.40;;;;;;;20.56;67.28;102548.13;1987494;29;20054;-62
2022/08/11 01:09:58;;;;;;;0.30;0.30;;;;;;;20.58;67.10;102555.97;1991394;29;20058;-63
2022/08/11 01:11:46;;;;;;;0.32;0.32;;;;;;;20.53;67.01;102550.78;1991623;29;20062;-62
2022/08/11 01:13:13;;;;;;;0.40;0.40;;;;;;;20.51;66.89;102548.41;1982848;29;20485;-62
2022/08/11 01:14:51;;;;;;;0.38;0.38;;;;;;;20.46;67.02;102545.16;1981485;29;20664;-63
2022/08/11 01:16:27;;;;;;;0.30;0.30;;;;;;;20.45;67.20;102547.13;1984997;29;20132;-62
2022/08/11 01:18:03;;;;;;;0.40;0.40;;;;;;;20.44;67.27;102548.28;1987146;29;20424;-62
2022/08/11 01:19:43;;;;;;;0.40;0.40;;;;;;;20.39;67.29;102545.06;1989156;29;20465;-63
2022/08/11 01:21:24;;;;;;;0.32;0.32;;;;;;;20.35;67.21;102539.50;1989702;29;20054;-63
2022/08/11 01:23:10;;;;;;;0.40;0.40;;;;;;;20.34;67.53;102539.88;1986938;29;20105;-62
2022/08/11 01:24:59;;;;;;;0.30;0.30;;;;;;;20.29;67.31;102538.22;1988988;29;20062;-62
2022/08/11 01:26:47;;;;;;;0.40;0.40;;;;;;;20.27;67.30;102542.47;1987851;29;20511;-63
2022/08/11 01:28:37;;;;;;;0.30;0.30;;;;;;;20.24;67.32;102537.72;1991068;29;20094;-62
2022/08/11 01:30:09;;;;;;;0.30;0.30;;;;;;;20.21;67.27;102550.22;1991496;29;20514;-65
2022/08/11 01:31:53;;;;;;;0.30;0.30;;;;;;;20.20;67.54;102547.84;1989328;29;20137;-63
2022/08/11 01:33:36;;;;;;;0.40;0.40;;;;;;;20.20;67.75;102542.38;1985207;29;20066;-63
2022/08/11 01:35:24;;;;;;;0.32;0.32;;;;;;;20.19;67.48;102538.03;1993398;29;20073;-63
2022/08/11 01:36:55;;;;;;;0.30;0.30;;;;;;;20.17;67.90;102532.13;1962595;30;20198;-63
2022/08/11 01:38:21;;;;;;;0.30;0.30;;;;;;;20.15;67.63;102535.22;1963210;30;20067;-62
2022/08/11 01:39:54;;;;;;;0.40;0.40;;;;;;;20.13;67.85;102531.22;1987659;29;20059;-63
2022/08/11 01:44:36;;;;;;;0.30;0.30;;;;;;;20.08;67.91;102537.81;1965526;29;20064;-63
2022/08/11 01:45:06;;;;;;;0.40;0.40;;;;;;;20.02;68.24;102538.47;1985221;29;20134;-62
2022/08/11 01:46:16;;;;;;;0.40;0.40;;;;;;;20.03;68.27;102532.63;1987373;29;20536;-62
2022/08/11 01:49:08;;;;;;;0.30;0.30;;;;;;;19.97;68.26;102539.56;1991281;29;19929;-62
2022/08/11 01:50:45;;;;;;;0.30;0.30;;;;;;;19.99;68.23;102544.69;1991370;29;20069;-64
2022/08/11 01:52:08;;;;;;;0.30;0.30;;;;;;;19.98;67.94;102541.13;1988339;29;20065;-63
2022/08/11 01:53:22;;;;;;;0.40;0.40;;;;;;;20.00;67.88;102538.03;1987004;29;20145;-64
2022/08/11 01:54:32;;;;;;;0.30;0.30;;;;;;;20.02;68.05;102541.19;1987235;29;20130;-62
2022/08/11 01:55:42;;;;;;;0.30;0.30;;;;;;;20.02;67.64;102541.19;1986769;29;20082;-63
2022/08/11 01:56:57;;;;;;;0.40;0.40;;;;;;;20.02;67.95;102535.72;1990191;29;20059;-63
2022/08/11 01:58:07;;;;;;;0.35;0.35;;;;;;;20.00;67.87;102536.09;1990140;29;20062;-67
2022/08/11 01:59:17;;;;;;;0.40;0.40;;;;;;;20.01;68.07;102539.63;1991532;29;20122;-63
2022/08/11 02:00:21;;;;;;;0.30;0.30;;;;;;;20.01;67.71;102537.66;1989824;29;20515;-62
2022/08/11 02:01:37;;;;;;;0.30;0.30;;;;;;;20.01;67.96;102534.16;1991952;29;20090;-64
2022/08/11 02:02:52;;;;;;;0.40;0.40;;;;;;;19.98;68.25;102537.63;1992812;29;20137;-65
2022/08/11 02:04:07;;;;;;;0.40;0.40;;;;;;;19.99;68.23;102531.78;1986882;29;20464;-63
2022/08/11 02:05:22;;;;;;;0.30;0.30;;;;;;;19.95;68.45;102530.09;1991883;29;20084;-63
2022/08/11 02:08:09;;;;;;;0.30;0.30;;;;;;;19.88;68.51;102525.28;1988311;29;20636;-62
2022/08/11 02:09:26;;;;;;;0.30;0.30;;;;;;;19.88;68.50;102535.44;1986112;29;20097;-61
2022/08/11 02:12:09;;;;;;;0.32;0.32;;;;;;;19.87;68.59;102536.63;1983716;29;20053;-63
2022/08/11 02:13:25;;;;;;;0.30;0.30;;;;;;;19.86;68.55;102537.75;1983354;29;20065;-63
2022/08/11 02:14:48;;;;;;;0.30;0.30;;;;;;;19.87;68.64;102533.88;1992059;29;20123;-63
2022/08/11 02:16:27;;;;;;;0.30;0.30;;;;;;;19.82;68.84;102537.69;1982525;29;20093;-64
2022/08/11 02:17:46;;;;;;;0.40;0.40;;;;;;;19.85;68.88;102533.44;1987349;29;20649;-63
2022/08/11 02:23:41;;;;;;;0.30;0.30;;;;;;;19.72;69.21;102521.03;1986466;29;20101;-63
2022/08/11 02:25:07;;;;;;;0.30;0.30;;;;;;;19.73;69.17;102525.34;1988236;29;20461;-63
2022/08/11 02:26:18;;;;;;;0.22;0.22;;;;;;;19.75;68.98;102529.34;1986638;29;20551;-63
2022/08/11 02:27:24;;;;;;;0.30;0.30;;;;;;;19.78;68.99;102527.81;1995353;29;20141;-62
2022/08/11 02:28:35;;;;;;;0.30;0.30;;;;;;;19.76;68.87;102528.16;1989709;29;20165;-63
2022/08/11 02:30:03;;;;;;;0.30;0.30;;;;;;;19.75;68.88;102531.28;1990336;29;20054;-62
2022/08/11 02:34:32;;;;;;;0.30;0.30;;;;;;;19.65;69.26;102523.63;1993758;29;20137;-63
2022/08/11 02:35:50;;;;;;;0.30;0.30;;;;;;;19.64;69.53;102525.59;1990297;29;20054;-64
2022/08/11 02:37:00;;;;;;;0.30;0.30;;;;;;;19.67;69.22;102524.06;1986920;29;20150;-65
2022/08/11 02:38:14;;;;;;;0.30;0.30;;;;;;;19.66;69.36;102522.47;1987948;29;20123;-64
2022/08/11 02:39:21;;;;;;;0.30;0.30;;;;;;;19.69;69.18;102529.97;1989416;29;20063;-63
2022/08/11 02:40:34;;;;;;;0.30;0.30;;;;;;;19.68;69.08;102520.19;1990226;29;20519;-63
2022/08/11 02:43:41;;;;;;;0.30;0.30;;;;;;;19.61;69.52;102514.56;1989912;29;20050;-63
2022/08/11 02:45:11;;;;;;;0.30;0.30;;;;;;;19.58;69.43;102516.06;1989051;29;20540;-64
2022/08/11 02:46:23;;;;;;;0.30;0.30;;;;;;;19.59;69.63;102520.38;1993326;29;20062;-63
2022/08/11 02:47:38;;;;;;;0.22;0.22;;;;;;;19.58;69.63;102509.78;1996487;29;20132;-64
2022/08/11 02:50:19;;;;;;;0.30;0.30;;;;;;;19.56;69.66;102517.56;1988271;29;20417;-63
2022/08/11 02:51:30;;;;;;;0.30;0.30;;;;;;;19.58;69.80;102515.28;1993668;29;20058;-63
2022/08/11 02:52:45;;;;;;;0.32;0.32;;;;;;;19.56;69.50;102517.56;1990932;29;20066;-63
2022/08/11 02:53:57;;;;;;;0.32;0.32;;;;;;;19.55;69.35;102518.75;1979967;29;20126;-62
2022/08/11 02:55:21;;;;;;;0.30;0.30;;;;;;;19.51;69.86;102517.84;1982087;29;20516;-63
2022/08/11 02:56:54;;;;;;;0.30;0.30;;;;;;;19.48;70.01;102521.31;1986246;29;20522;-62
2022/08/11 02:58:02;;;;;;;0.30;0.30;;;;;;;19.48;69.83;102513.91;1993474;29;20086;-63
2022/08/11 03:00:50;;;;;;;0.30;0.30;;;;;;;19.41;70.38;102510.22;1991129;29;20080;-62
2022/08/11 03:01:58;;;;;;;0.30;0.30;;;;;;;19.42;70.30;102514.53;1988321;29;20538;-62
2022/08/11 03:03:24;;;;;;;0.30;0.30;;;;;;;19.36;70.17;102508.53;1986754;29;20125;-63
2022/08/11 03:04:36;;;;;;;0.30;0.30;;;;;;;19.37;70.52;102506.59;1986117;29;20243;-62
2022/08/11 03:05:52;;;;;;;0.30;0.30;;;;;;;19.37;70.54;102503.88;1991489;29;20086;-62
2022/08/11 03:07:05;;;;;;;0.30;0.30;;;;;;;19.37;70.53;102503.88;1990433;29;20137;-65
2022/08/11 03:08:40;;;;;;;0.30;0.30;;;;;;;19.33;70.66;102501.84;1981252;29;20115;-63
2022/08/11 03:09:49;;;;;;;0.30;0.30;;;;;;;19.35;70.54;102504.22;1985421;29;20782;-63
2022/08/11 03:17:16;;;;;;;0.40;0.40;;;;;;;19.21;70.65;102501.16;1965408;29;20612;-63
2022/08/11 03:18:28;;;;;;;0.30;0.30;;;;;;;19.22;71.10;102502.72;1978387;29;20444;-62
2022/08/11 03:19:48;;;;;;;0.30;0.30;;;;;;;19.20;71.12;102499.59;1972193;29;20067;-62
2022/08/11 03:20:57;;;;;;;0.40;0.40;;;;;;;19.22;71.19;102514.50;1979114;29;20143;-62
2022/08/11 03:22:07;;;;;;;0.30;0.30;;;;;;;19.22;71.33;102502.72;1985357;29;20157;-62
2022/08/11 03:23:18;;;;;;;0.40;0.40;;;;;;;19.22;71.34;102503.53;1989863;29;20077;-63
2022/08/11 03:24:27;;;;;;;0.40;0.40;;;;;;;19.21;71.25;102499.22;1993119;29;20500;-63
2022/08/11 03:25:38;;;;;;;0.40;0.40;;;;;;;19.23;71.26;102498.88;1978236;29;20484;-63
2022/08/11 03:26:55;;;;;;;0.30;0.30;;;;;;;19.20;71.30;102507.78;1983360;29;20150;-63
2022/08/11 03:28:15;;;;;;;0.30;0.30;;;;;;;19.18;71.29;102508.16;1991799;29;20058;-64
2022/08/11 03:29:26;;;;;;;0.38;0.38;;;;;;;19.16;71.78;102504.97;1984961;29;20141;-63
2022/08/11 03:30:39;;;;;;;0.30;0.30;;;;;;;19.16;71.61;102499.50;1983091;29;20077;-63
2022/08/11 03:31:48;;;;;;;0.40;0.40;;;;;;;19.14;71.91;102501.78;1981730;29;20134;-63
2022/08/11 03:34:27;;;;;;;0.40;0.40;;;;;;;19.13;71.81;102504.88;1987044;29;20074;-64
2022/08/11 03:35:36;;;;;;;0.30;0.30;;;;;;;19.13;71.84;102499.41;1991263;29;20507;-64
2022/08/11 03:38:47;;;;;;;0.50;0.50;;;;;;;19.04;72.08;102502.34;1985990;29;20130;-63
2022/08/11 03:39:58;;;;;;;0.40;0.40;;;;;;;19.06;71.91;102501.97;1986875;29;20157;-64
2022/08/11 03:43:21;;;;;;;0.30;0.30;;;;;;;18.99;72.41;102502.66;1980050;29;20091;-63
2022/08/11 03:44:41;;;;;;;0.40;0.40;;;;;;;19.01;72.35;102500.31;1974031;30;20130;-65
2022/08/11 03:45:57;;;;;;;0.40;0.40;;;;;;;19.02;71.84;102501.94;1974869;29;20084;-63
2022/08/11 03:47:16;;;;;;;0.30;0.30;;;;;;;19.02;72.23;102504.66;1964682;30;20056;-63
2022/08/11 03:48:25;;;;;;;0.40;0.40;;;;;;;19.01;72.08;102494.84;1975714;29;20064;-64
2022/08/11 03:49:37;;;;;;;0.40;0.40;;;;;;;19.03;72.23;102495.28;1994727;29;20097;-63
2022/08/11 03:51:02;;;;;;;0.30;0.30;;;;;;;18.99;72.80;102502.66;1988768;29;20566;-63
2022/08/11 03:52:15;;;;;;;0.40;0.40;;;;;;;19.01;72.65;102508.53;1986924;29;20046;-63
2022/08/11 03:53:34;;;;;;;0.40;0.40;;;;;;;19.01;72.27;102503.06;1986485;29;20063;-63
2022/08/11 03:54:46;;;;;;;0.40;0.40;;;;;;;18.98;72.53;102509.25;1986431;29;20581;-63
2022/08/11 03:56:20;;;;;;;0.40;0.40;;;;;;;18.92;72.91;102515.34;1991237;29;20174;-63
2022/08/11 03:57:54;;;;;;;0.40;0.40;;;;;;;18.93;73.10;102509.53;1992689;29;20154;-63
2022/08/11 03:59:38;;;;;;;0.40;0.40;;;;;;;18.87;72.98;102505.47;1992985;29;20458;-63
2022/08/11 04:01:31;;;;;;;0.40;0.40;;;;;;;18.84;73.07;102508.94;1974670;30;20145;-62
2022/08/11 04:02:59;;;;;;;0.50;0.50;;;;;;;18.84;72.88;102502.66;1985159;29;20051;-62
2022/08/11 04:04:42;;;;;;;0.43;0.43;;;;;;;18.84;73.14;102502.66;1993022;29;20098;-62
2022/08/11 04:06:30;;;;;;;0.50;0.50;;;;;;;18.80;73.30;102502.59;1986115;29;20066;-63
2022/08/11 04:08:27;;;;;;;0.50;0.50;;;;;;;18.76;73.21;102496.22;1986254;29;20085;-62
2022/08/11 04:10:09;;;;;;;0.40;0.40;;;;;;;18.76;73.12;102500.91;1942864;30;20061;-64
2022/08/11 04:11:31;;;;;;;0.50;0.50;;;;;;;18.76;73.08;102498.97;1987450;29;20754;-62
2022/08/11 04:13:00;;;;;;;0.40;0.40;;;;;;;18.75;73.64;102510.28;1987294;29;20547;-63
2022/08/11 04:16:41;;;;;;;0.50;0.50;;;;;;;18.66;73.48;102496.75;1994846;29;20410;-64
2022/08/11 04:18:23;;;;;;;0.50;0.50;;;;;;;18.68;73.72;102505.41;1987463;29;20115;-63
2022/08/11 04:20:22;;;;;;;0.50;0.50;;;;;;;18.66;73.44;102506.94;1989265;29;20095;-64
2022/08/11 04:21:57;;;;;;;0.50;0.50;;;;;;;18.62;73.98;102504.09;1978543;30;20066;-64
2022/08/11 04:23:23;;;;;;;0.50;0.50;;;;;;;18.63;73.90;102497.47;1978878;29;20176;-64
2022/08/11 04:25:05;;;;;;;0.50;0.50;;;;;;;18.63;74.04;102497.47;1989368;29;20055;-62
2022/08/11 04:26:32;;;;;;;0.50;0.50;;;;;;;18.62;74.23;102501.38;1988884;29;20153;-63
2022/08/11 04:28:04;;;;;;;0.50;0.50;;;;;;;18.61;74.10;102488.84;1989206;29;20107;-63
2022/08/11 04:29:17;;;;;;;0.50;0.50;;;;;;;18.67;73.85;102498.38;1994332;29;20061;-63
2022/08/11 04:30:28;;;;;;;0.50;0.50;;;;;;;18.67;74.26;102490.16;1987338;29;20133;-63
2022/08/11 04:31:39;;;;;;;0.40;0.40;;;;;;;18.70;74.25;102492.19;1991362;29;20054;-62
2022/08/11 04:33:27;;;;;;;0.50;0.50;;;;;;;18.66;74.39;102496.75;1989880;29;20534;-63
2022/08/11 04:34:44;;;;;;;0.50;0.50;;;;;;;18.68;74.13;102499.19;1990141;29;20076;-63
2022/08/11 04:35:56;;;;;;;0.50;0.50;;;;;;;18.69;74.22;102496.09;1987096;29;20126;-63
2022/08/11 04:37:34;;;;;;;0.50;0.50;;;;;;;18.69;73.97;102512.50;1987539;29;20532;-62
2022/08/11 04:39:05;;;;;;;0.60;0.60;;;;;;;18.64;74.30;102496.34;1987028;29;20133;-64
2022/08/11 04:40:46;;;;;;;0.50;0.50;;;;;;;18.63;74.35;102497.47;1986966;29;20069;-64
2022/08/11 04:44:27;;;;;;;0.50;0.50;;;;;;;18.65;74.52;102497.91;1989008;29;20065;-63
2022/08/11 04:45:49;;;;;;;0.60;0.60;;;;;;;18.65;74.90;102500.66;1989414;29;20452;-63
2022/08/11 05:01:39;;;;;;;0.50;0.50;;;;;;;18.62;74.70;102493.16;1994024;29;20062;-62
2022/08/11 05:03:27;;;;;;;0.50;0.50;;;;;;;18.59;75.33;102496.59;1987141;29;20062;-63
2022/08/11 05:06:50;;;;;;;0.50;0.50;;;;;;;18.62;75.60;102497.84;1986189;29;20063;-63
2022/08/11 05:08:28;;;;;;;0.55;0.55;;;;;;;18.64;75.49;102499.09;1985198;29;20134;-65
2022/08/11 05:10:03;;;;;;;0.50;0.50;;;;;;;18.65;75.55;102491.66;1988468;29;20061;-62
2022/08/11 05:11:29;;;;;;;0.50;0.50;;;;;;;18.69;75.35;102489.81;1989846;29;20094;-62
2022/08/11 05:12:40;;;;;;;0.50;0.50;;;;;;;18.73;74.97;102488.72;1991659;29;20074;-63
2022/08/11 05:34:52;;;;;;;0.50;0.50;;;;;;;19.26;76.26;102507.16;1974674;29;20059;-65
2022/08/11 05:36:05;;;;;;;0.55;0.55;;;;;;;19.36;75.91;102510.50;1975451;29;20548;-64
2022/08/11 05:37:10;;;;;;;0.50;0.50;;;;;;;19.45;75.94;102505.59;1975416;29;20070;-63
2022/08/11 05:57:06;;;;;;;0.50;0.50;;;;;;;20.38;73.45;102525.06;1975347;29;20079;-63
2022/08/11 05:58:11;;;;;;;0.50;0.50;;;;;;;20.53;72.73;102523.34;1982628;29;20189;-64
2022/08/11 05:59:16;;;;;;;0.50;0.50;;;;;;;20.59;72.18;102525.41;1982825;29;20063;-64
2022/08/11 06:00:19;;;;;;;0.50;0.50;;;;;;;20.69;72.24;102518.53;1978108;29;20070;-63
2022/08/11 06:01:23;;;;;;;0.50;0.50;;;;;;;20.78;71.82;102527.28;1982867;29;20370;-63
2022/08/11 06:02:26;;;;;;;0.60;0.60;;;;;;;20.86;71.68;102520.72;1983082;29;20428;-65
2022/08/11 06:04:12;;;;;;;0.60;0.60;;;;;;;20.86;71.41;102530.91;1983931;29;20067;-63
2022/08/11 06:05:01;;;;;;;0.50;0.50;;;;;;;20.85;71.82;102516.41;1986482;29;20059;-63
2022/08/11 06:06:09;;;;;;;0.50;0.50;;;;;;;20.94;70.88;102519.69;1990131;29;20427;-62
2022/08/11 06:07:16;;;;;;;0.50;0.50;;;;;;;21.00;70.99;102525.66;1986990;29;20146;-65
2022/08/11 06:08:28;;;;;;;0.60;0.60;;;;;;;21.01;70.63;102525.28;1984023;29;20070;-64
2022/08/11 06:09:32;;;;;;;0.57;0.57;;;;;;;21.14;70.91;102526.66;1985949;29;20062;-63
2022/08/11 06:10:37;;;;;;;0.50;0.50;;;;;;;21.22;70.42;102528.34;1981680;29;20086;-63
2022/08/11 06:11:41;;;;;;;0.50;0.50;;;;;;;21.31;70.43;102530.81;1985481;29;20055;-63
2022/08/11 06:12:54;;;;;;;0.50;0.50;;;;;;;21.31;70.49;102528.84;1990012;29;20054;-63
2022/08/11 06:13:57;;;;;;;0.50;0.50;;;;;;;21.34;70.85;102530.88;1990088;29;20382;-62
2022/08/11 06:15:04;;;;;;;0.50;0.50;;;;;;;21.47;69.91;102532.22;1987999;29;20081;-63
2022/08/11 06:16:07;;;;;;;0.50;0.50;;;;;;;21.56;69.67;102530.00;1991890;29;20059;-63
2022/08/11 06:17:14;;;;;;;0.50;0.50;;;;;;;21.59;69.26;102539.44;1991929;29;20114;-62
2022/08/11 06:18:16;;;;;;;0.60;0.60;;;;;;;21.60;69.21;102539.06;1973809;30;20142;-64
2022/08/11 06:19:23;;;;;;;0.50;0.50;;;;;;;21.74;69.23;102530.97;1974870;29;20067;-63
2022/08/11 06:20:26;;;;;;;0.52;0.52;;;;;;;21.77;68.98;102529.47;1989822;29;20141;-62
2022/08/11 06:21:33;;;;;;;0.50;0.50;;;;;;;21.88;68.39;102533.91;1986188;29;20099;-64
2022/08/11 06:22:36;;;;;;;0.60;0.60;;;;;;;21.84;68.85;102530.34;1992206;29;20587;-63
2022/08/11 06:23:41;;;;;;;0.50;0.50;;;;;;;21.99;69.10;102534.81;1990689;29;20074;-63
2022/08/11 06:24:52;;;;;;;0.50;0.50;;;;;;;22.00;68.24;102536.41;1993585;29;20507;-62
2022/08/11 06:25:54;;;;;;;0.40;0.40;;;;;;;22.08;68.21;102531.78;1997367;29;20050;-63
2022/08/11 06:26:59;;;;;;;0.50;0.50;;;;;;;22.19;68.06;102538.97;1992396;29;20063;-63
2022/08/11 06:28:15;;;;;;;0.50;0.50;;;;;;;22.23;68.58;102528.78;1991231;29;20136;-63
2022/08/11 06:29:25;;;;;;;0.40;0.40;;;;;;;22.34;67.73;102539.91;1993610;29;20127;-63
2022/08/11 06:30:48;;;;;;;0.40;0.40;;;;;;;22.33;67.77;102540.25;1991473;29;20145;-63
2022/08/11 06:31:54;;;;;;;0.50;0.50;;;;;;;22.49;67.19;102533.34;1992323;29;20058;-64
2022/08/11 06:32:58;;;;;;;0.50;0.50;;;;;;;22.53;67.20;102525.94;1991536;29;20191;-64
2022/08/11 06:34:11;;;;;;;0.50;0.50;;;;;;;22.53;66.68;102536.97;1990605;29;20193;-64
2022/08/11 06:35:39;;;;;;;0.40;0.40;;;;;;;22.56;66.63;102529.88;1989125;29;20492;-63
2022/08/11 06:36:53;;;;;;;0.50;0.50;;;;;;;22.71;65.91;102537.06;1990706;29;20126;-64
2022/08/11 06:38:06;;;;;;;0.40;0.40;;;;;;;22.68;65.69;102535.09;1986960;29;20118;-63
2022/08/11 06:39:20;;;;;;;0.50;0.50;;;;;;;22.71;64.94;102539.81;1992446;29;20627;-63
2022/08/11 06:40:34;;;;;;;0.50;0.50;;;;;;;22.72;65.41;102530.41;1992142;29;20062;-63
2022/08/11 06:41:45;;;;;;;0.50;0.50;;;;;;;22.78;65.25;102539.91;1992692;29;20463;-63
2022/08/11 06:42:53;;;;;;;0.40;0.40;;;;;;;22.87;65.34;102535.63;1990049;29;20460;-63
2022/08/11 06:44:05;;;;;;;0.47;0.47;;;;;;;22.92;64.10;102542.75;1986712;29;20092;-64
2022/08/11 06:45:19;;;;;;;0.50;0.50;;;;;;;22.93;64.63;102549.84;1987930;29;20141;-65
2022/08/11 06:46:28;;;;;;;0.50;0.50;;;;;;;23.03;64.65;102543.59;1990074;29;20126;-63
2022/08/11 06:47:31;;;;;;;0.50;0.50;;;;;;;23.08;64.44;102534.97;1987990;29;20066;-63
2022/08/11 06:48:36;;;;;;;0.40;0.40;;;;;;;23.24;64.43;102538.22;1991775;29;20099;-60
2022/08/11 06:51:11;;;;;;;0.40;0.40;;;;;;;23.28;63.73;102547.31;1991039;29;20489;-59
2022/08/11 06:52:15;;;;;;;0.50;0.50;;;;;;;23.28;63.58;102550.09;1989627;29;20138;-61
2022/08/11 06:53:42;;;;;;;0.40;0.40;;;;;;;23.38;63.75;102552.13;1987822;29;20141;-61
2022/08/11 06:55:08;;;;;;;0.40;0.40;;;;;;;23.44;64.08;102542.28;1988358;29;20062;-62
2022/08/11 07:01:03;;;;;;;0.30;0.30;;;;;;;23.72;63.29;102547.94;1994657;29;20060;-60
2022/08/11 07:02:11;;;;;;;0.40;0.40;;;;;;;23.84;62.61;102550.34;1989440;29;20055;-64
2022/08/11 07:03:19;;;;;;;0.40;0.40;;;;;;;23.90;61.71;102547.97;1992184;29;20062;-61
2022/08/11 07:04:30;;;;;;;0.40;0.40;;;;;;;23.86;61.63;102556.25;1990442;29;20079;-61
2022/08/11 07:05:43;;;;;;;0.50;0.50;;;;;;;23.86;61.62;102558.22;1986457;29;20062;-63
2022/08/11 07:16:16;;;;;;;0.50;0.50;;;;;;;24.45;60.93;102549.31;1987541;29;20077;-61
2022/08/11 07:17:22;;;;;;;0.50;0.50;;;;;;;24.60;59.76;102557.19;1992020;29;20137;-61
2022/08/11 07:28:57;;;;;;;0.50;0.50;;;;;;;25.29;57.87;102557.50;1987050;29;20063;-61
2022/08/11 07:30:04;;;;;;;0.40;0.40;;;;;;;25.38;57.10;102552.38;1991229;29;20088;-62
2022/08/11 07:31:12;;;;;;;0.40;0.40;;;;;;;25.59;56.85;102559.81;1992796;29;20047;-62
2022/08/11 07:32:23;;;;;;;0.45;0.45;;;;;;;25.70;56.50;102555.81;1989455;29;20567;-61
2022/08/11 07:33:39;;;;;;;0.50;0.50;;;;;;;25.80;56.10;102560.50;1982139;29;20129;-61
2022/08/11 07:35:08;;;;;;;0.40;0.40;;;;;;;25.90;56.15;102562.44;1987825;29;20545;-61
2022/08/11 07:36:11;;;;;;;0.40;0.40;;;;;;;26.08;54.40;102559.59;1988313;29;20055;-61
2022/08/11 07:37:18;;;;;;;0.40;0.40;;;;;;;26.29;54.07;102567.78;1991397;29;20062;-61
2022/08/11 07:38:42;;;;;;;0.40;0.40;;;;;;;26.41;53.96;102564.50;1992042;29;20545;-61
2022/08/11 07:39:48;;;;;;;0.40;0.40;;;;;;;26.33;53.52;102563.78;1990361;29;20058;-61
2022/08/11 07:40:50;;;;;;;0.40;0.40;;;;;;;26.50;53.24;102569.59;1992017;29;20504;-60
2022/08/11 07:41:56;;;;;;;0.40;0.40;;;;;;;26.65;53.07;102566.31;1991797;29;20134;-61
2022/08/11 07:43:00;;;;;;;0.40;0.40;;;;;;;26.77;52.74;102567.78;1988089;29;20082;-61
2022/08/11 07:44:07;;;;;;;0.40;0.40;;;;;;;26.86;52.53;102570.91;1989842;29;20162;-60
2022/08/11 07:53:31;;;;;;;0.40;0.40;;;;;;;27.24;51.37;102567.72;1992043;29;20054;-61
2022/08/11 07:54:43;;;;;;;0.40;0.40;;;;;;;27.29;51.30;102572.84;1992633;29;20058;-61
2022/08/11 07:55:55;;;;;;;0.40;0.40;;;;;;;27.41;51.31;102564.00;1989697;29;20129;-61
2022/08/11 07:56:58;;;;;;;0.40;0.40;;;;;;;27.52;51.03;102564.66;1993996;29;20129;-61
2022/08/11 08:17:51;;;;;;;0.50;0.50;;;;;;;28.99;45.45;102572.75;1994166;29;20066;-61
2022/08/11 08:19:16;;;;;;;0.50;0.50;;;;;;;29.17;45.10;102569.69;1987103;29;20102;-61
2022/08/11 08:20:23;;;;;;;0.50;0.50;;;;;;;29.43;44.75;102568.75;1991106;29;20066;-61
2022/08/11 08:21:26;;;;;;;0.50;0.50;;;;;;;29.44;44.38;102575.91;1992162;29;20494;-60
2022/08/11 08:22:29;;;;;;;0.50;0.50;;;;;;;29.61;44.35;102580.31;1992199;29;20137;-61
2022/08/11 08:23:45;;;;;;;0.43;0.43;;;;;;;29.70;43.97;102577.00;1992749;29;20172;-60
2022/08/11 08:24:50;;;;;;;0.50;0.50;;;;;;;29.84;42.99;102574.69;1992445;29;20601;-62